sensor_id;sensor_type;location;lat;lon;timestamp;P1;durP1;ratioP1;P2;durP2;ratioP2
41687;SDS011;27371;42.686;23.362;2022-08-21T00:04:16;11.68;;;8.00;;
41687;SDS011;27371;42.686;23.362;2022-08-21T00:06:41;12.82;;;8.23;;
41687;SDS011;27371;42.686;23.362;2022-08-21T00:09:07;13.05;;;7.90;;
41687;SDS011;27371;42.686;23.362;2022-08-21T00:11:34;14.85;;;8.85;;
41687;SDS011;27371;42.686;23.362;2022-08-21T00:14:01;11.43;;;8.77;;
41687;SDS011;27371;42.686;23.362;2022-08-21T00:16:27;13.48;;;7.60;;
41687;SDS011;27371;42.686;23.362;2022-08-21T00:18:53;9.98;;;6.63;;
41687;SDS011;27371;42.686;23.362;2022-08-21T00:21:18;12.07;;;7.13;;
41687;SDS011;27371;42.686;23.362;2022-08-21T00:23:44;13.27;;;6.90;;
41687;SDS011;27371;42.686;23.362;2022-08-21T00:26:10;14.07;;;9.60;;
41687;SDS011;27371;42.686;23.362;2022-08-21T00:28:35;13.93;;;9.10;;
41687;SDS011;27371;42.686;23.362;2022-08-21T00:31:01;12.82;;;8.85;;
41687;SDS011;27371;42.686;23.362;2022-08-21T00:33:29;11.73;;;8.98;;
41687;SDS011;27371;42.686;23.362;2022-08-21T00:35:55;13.77;;;9.20;;
41687;SDS011;27371;42.686;23.362;2022-08-21T00:38:21;12.63;;;9.52;;
41687;SDS011;27371;42.686;23.362;2022-08-21T00:40:57;16.25;;;8.90;;
41687;SDS011;27371;42.686;23.362;2022-08-21T00:43:26;15.45;;;9.45;;
41687;SDS011;27371;42.686;23.362;2022-08-21T00:45:54;14.50;;;9.75;;
41687;SDS011;27371;42.686;23.362;2022-08-21T00:48:20;15.05;;;9.82;;
41687;SDS011;27371;42.686;23.362;2022-08-21T00:50:55;15.32;;;10.32;;
41687;SDS011;27371;42.686;23.362;2022-08-21T00:53:26;15.13;;;9.60;;
41687;SDS011;27371;42.686;23.362;2022-08-21T00:55:54;14.20;;;10.00;;
41687;SDS011;27371;42.686;23.362;2022-08-21T00:58:21;12.95;;;11.07;;
41687;SDS011;27371;42.686;23.362;2022-08-21T01:00:48;16.98;;;11.02;;
41687;SDS011;27371;42.686;23.362;2022-08-21T01:03:16;15.63;;;10.18;;
41687;SDS011;27371;42.686;23.362;2022-08-21T01:05:44;15.98;;;10.55;;
41687;SDS011;27371;42.686;23.362;2022-08-21T01:08:11;15.20;;;10.82;;
41687;SDS011;27371;42.686;23.362;2022-08-21T01:10:38;16.55;;;11.00;;
41687;SDS011;27371;42.686;23.362;2022-08-21T01:13:05;13.80;;;10.93;;
41687;SDS011;27371;42.686;23.362;2022-08-21T01:15:34;13.48;;;11.02;;
41687;SDS011;27371;42.686;23.362;2022-08-21T01:18:05;14.38;;;10.73;;
41687;SDS011;27371;42.686;23.362;2022-08-21T01:20:33;16.92;;;11.32;;
41687;SDS011;27371;42.686;23.362;2022-08-21T01:23:00;14.27;;;11.23;;
41687;SDS011;27371;42.686;23.362;2022-08-21T01:25:26;16.02;;;11.02;;
41687;SDS011;27371;42.686;23.362;2022-08-21T01:27:52;16.45;;;11.80;;
41687;SDS011;27371;42.686;23.362;2022-08-21T01:30:20;16.27;;;11.23;;
41687;SDS011;27371;42.686;23.362;2022-08-21T01:32:49;16.83;;;11.13;;
41687;SDS011;27371;42.686;23.362;2022-08-21T01:35:16;15.20;;;10.90;;
41687;SDS011;27371;42.686;23.362;2022-08-21T01:37:44;18.00;;;12.02;;
41687;SDS011;27371;42.686;23.362;2022-08-21T01:40:10;20.80;;;12.65;;
41687;SDS011;27371;42.686;23.362;2022-08-21T01:42:41;18.33;;;12.60;;
41687;SDS011;27371;42.686;23.362;2022-08-21T01:45:07;18.40;;;11.15;;
41687;SDS011;27371;42.686;23.362;2022-08-21T01:47:34;17.65;;;12.35;;
41687;SDS011;27371;42.686;23.362;2022-08-21T01:50:00;15.30;;;11.55;;
41687;SDS011;27371;42.686;23.362;2022-08-21T01:52:25;20.13;;;13.75;;
41687;SDS011;27371;42.686;23.362;2022-08-21T01:54:51;18.05;;;13.88;;
41687;SDS011;27371;42.686;23.362;2022-08-21T01:57:17;25.10;;;17.30;;
41687;SDS011;27371;42.686;23.362;2022-08-21T01:59:42;21.00;;;15.25;;
41687;SDS011;27371;42.686;23.362;2022-08-21T02:02:08;29.10;;;18.00;;
41687;SDS011;27371;42.686;23.362;2022-08-21T02:04:34;25.33;;;18.25;;
41687;SDS011;27371;42.686;23.362;2022-08-21T02:07:00;32.08;;;19.65;;
41687;SDS011;27371;42.686;23.362;2022-08-21T02:09:26;31.60;;;20.85;;
41687;SDS011;27371;42.686;23.362;2022-08-21T02:11:53;34.60;;;22.50;;
41687;SDS011;27371;42.686;23.362;2022-08-21T02:14:19;31.90;;;21.33;;
41687;SDS011;27371;42.686;23.362;2022-08-21T02:16:45;37.40;;;23.67;;
41687;SDS011;27371;42.686;23.362;2022-08-21T02:19:12;36.55;;;23.60;;
41687;SDS011;27371;42.686;23.362;2022-08-21T02:21:39;34.28;;;22.98;;
41687;SDS011;27371;42.686;23.362;2022-08-21T02:24:05;36.53;;;24.38;;
41687;SDS011;27371;42.686;23.362;2022-08-21T02:26:32;39.42;;;24.20;;
41687;SDS011;27371;42.686;23.362;2022-08-21T02:28:58;33.65;;;22.45;;
41687;SDS011;27371;42.686;23.362;2022-08-21T02:31:23;35.15;;;23.67;;
41687;SDS011;27371;42.686;23.362;2022-08-21T02:33:49;32.90;;;22.08;;
41687;SDS011;27371;42.686;23.362;2022-08-21T02:36:16;36.72;;;23.42;;
41687;SDS011;27371;42.686;23.362;2022-08-21T02:38:42;37.70;;;24.35;;
41687;SDS011;27371;42.686;23.362;2022-08-21T02:41:15;34.58;;;22.63;;
41687;SDS011;27371;42.686;23.362;2022-08-21T02:43:44;36.88;;;24.00;;
41687;SDS011;27371;42.686;23.362;2022-08-21T02:46:11;31.98;;;24.10;;
41687;SDS011;27371;42.686;23.362;2022-08-21T02:48:38;33.47;;;22.95;;
41687;SDS011;27371;42.686;23.362;2022-08-21T02:51:06;34.40;;;22.48;;
41687;SDS011;27371;42.686;23.362;2022-08-21T02:53:34;30.95;;;22.38;;
41687;SDS011;27371;42.686;23.362;2022-08-21T02:56:01;28.83;;;21.13;;
41687;SDS011;27371;42.686;23.362;2022-08-21T02:58:31;34.88;;;22.02;;
41687;SDS011;27371;42.686;23.362;2022-08-21T03:00:59;33.20;;;21.02;;
41687;SDS011;27371;42.686;23.362;2022-08-21T03:03:26;30.75;;;20.60;;
41687;SDS011;27371;42.686;23.362;2022-08-21T03:05:52;29.15;;;19.70;;
41687;SDS011;27371;42.686;23.362;2022-08-21T03:08:18;32.03;;;18.85;;
41687;SDS011;27371;42.686;23.362;2022-08-21T03:10:45;24.08;;;17.08;;
41687;SDS011;27371;42.686;23.362;2022-08-21T03:13:13;20.60;;;15.00;;
41687;SDS011;27371;42.686;23.362;2022-08-21T03:15:39;23.58;;;15.45;;
41687;SDS011;27371;42.686;23.362;2022-08-21T03:18:05;24.63;;;15.50;;
41687;SDS011;27371;42.686;23.362;2022-08-21T03:20:32;23.40;;;15.63;;
41687;SDS011;27371;42.686;23.362;2022-08-21T03:22:58;24.70;;;17.13;;
41687;SDS011;27371;42.686;23.362;2022-08-21T03:25:24;26.90;;;18.42;;
41687;SDS011;27371;42.686;23.362;2022-08-21T03:27:52;28.08;;;19.30;;
41687;SDS011;27371;42.686;23.362;2022-08-21T03:30:19;28.42;;;19.13;;
41687;SDS011;27371;42.686;23.362;2022-08-21T03:32:46;27.05;;;17.90;;
41687;SDS011;27371;42.686;23.362;2022-08-21T03:35:13;25.35;;;17.58;;
41687;SDS011;27371;42.686;23.362;2022-08-21T03:37:39;25.13;;;17.50;;
41687;SDS011;27371;42.686;23.362;2022-08-21T03:40:06;24.98;;;16.95;;
41687;SDS011;27371;42.686;23.362;2022-08-21T03:42:33;22.50;;;16.10;;
41687;SDS011;27371;42.686;23.362;2022-08-21T03:44:59;22.35;;;14.55;;
41687;SDS011;27371;42.686;23.362;2022-08-21T03:47:26;24.10;;;14.13;;
41687;SDS011;27371;42.686;23.362;2022-08-21T03:49:52;23.83;;;15.15;;
41687;SDS011;27371;42.686;23.362;2022-08-21T03:52:17;20.90;;;14.15;;
41687;SDS011;27371;42.686;23.362;2022-08-21T03:54:44;24.02;;;14.27;;
41687;SDS011;27371;42.686;23.362;2022-08-21T03:57:10;23.85;;;12.77;;
41687;SDS011;27371;42.686;23.362;2022-08-21T03:59:36;18.00;;;12.02;;
41687;SDS011;27371;42.686;23.362;2022-08-21T04:02:04;20.92;;;10.60;;
41687;SDS011;27371;42.686;23.362;2022-08-21T04:04:32;16.45;;;10.32;;
41687;SDS011;27371;42.686;23.362;2022-08-21T04:06:58;18.10;;;9.55;;
41687;SDS011;27371;42.686;23.362;2022-08-21T04:09:24;17.77;;;9.60;;
41687;SDS011;27371;42.686;23.362;2022-08-21T04:11:50;13.75;;;9.77;;
41687;SDS011;27371;42.686;23.362;2022-08-21T04:14:16;17.45;;;9.70;;
41687;SDS011;27371;42.686;23.362;2022-08-21T04:16:42;15.70;;;8.45;;
41687;SDS011;27371;42.686;23.362;2022-08-21T04:19:09;17.88;;;9.95;;
41687;SDS011;27371;42.686;23.362;2022-08-21T04:21:35;13.95;;;9.70;;
41687;SDS011;27371;42.686;23.362;2022-08-21T04:24:03;13.02;;;9.57;;
41687;SDS011;27371;42.686;23.362;2022-08-21T04:26:29;14.52;;;9.20;;
41687;SDS011;27371;42.686;23.362;2022-08-21T04:28:56;13.73;;;10.50;;
41687;SDS011;27371;42.686;23.362;2022-08-21T04:31:23;14.93;;;10.07;;
41687;SDS011;27371;42.686;23.362;2022-08-21T04:33:49;15.32;;;9.52;;
41687;SDS011;27371;42.686;23.362;2022-08-21T04:36:15;13.63;;;9.05;;
41687;SDS011;27371;42.686;23.362;2022-08-21T04:38:41;11.75;;;9.63;;
41687;SDS011;27371;42.686;23.362;2022-08-21T04:41:07;17.10;;;9.40;;
41687;SDS011;27371;42.686;23.362;2022-08-21T04:43:32;15.02;;;9.50;;
41687;SDS011;27371;42.686;23.362;2022-08-21T04:45:58;14.63;;;10.30;;
41687;SDS011;27371;42.686;23.362;2022-08-21T04:48:25;13.43;;;9.80;;
41687;SDS011;27371;42.686;23.362;2022-08-21T04:51:02;13.38;;;9.80;;
41687;SDS011;27371;42.686;23.362;2022-08-21T04:55:56;15.57;;;9.13;;
41687;SDS011;27371;42.686;23.362;2022-08-21T04:58:25;16.20;;;10.57;;
41687;SDS011;27371;42.686;23.362;2022-08-21T05:00:53;12.27;;;10.60;;
41687;SDS011;27371;42.686;23.362;2022-08-21T05:03:20;20.77;;;10.70;;
41687;SDS011;27371;42.686;23.362;2022-08-21T05:05:47;19.83;;;10.45;;
41687;SDS011;27371;42.686;23.362;2022-08-21T05:08:15;11.52;;;9.82;;
41687;SDS011;27371;42.686;23.362;2022-08-21T05:10:44;14.77;;;10.27;;
41687;SDS011;27371;42.686;23.362;2022-08-21T05:13:10;21.67;;;10.60;;
41687;SDS011;27371;42.686;23.362;2022-08-21T05:15:38;15.57;;;9.70;;
41687;SDS011;27371;42.686;23.362;2022-08-21T05:18:04;14.73;;;9.93;;
41687;SDS011;27371;42.686;23.362;2022-08-21T05:20:31;14.50;;;10.23;;
41687;SDS011;27371;42.686;23.362;2022-08-21T05:22:59;14.88;;;9.65;;
41687;SDS011;27371;42.686;23.362;2022-08-21T05:25:25;15.23;;;10.35;;
41687;SDS011;27371;42.686;23.362;2022-08-21T05:27:51;13.55;;;9.73;;
41687;SDS011;27371;42.686;23.362;2022-08-21T05:30:16;12.68;;;8.70;;
41687;SDS011;27371;42.686;23.362;2022-08-21T05:32:42;14.35;;;8.95;;
41687;SDS011;27371;42.686;23.362;2022-08-21T05:35:08;10.48;;;8.82;;
41687;SDS011;27371;42.686;23.362;2022-08-21T05:37:34;10.73;;;8.60;;
41687;SDS011;27371;42.686;23.362;2022-08-21T05:40:00;14.13;;;9.35;;
41687;SDS011;27371;42.686;23.362;2022-08-21T05:42:26;11.60;;;8.25;;
41687;SDS011;27371;42.686;23.362;2022-08-21T05:44:53;11.27;;;8.32;;
41687;SDS011;27371;42.686;23.362;2022-08-21T05:47:18;11.38;;;8.68;;
41687;SDS011;27371;42.686;23.362;2022-08-21T05:49:44;13.68;;;7.32;;
41687;SDS011;27371;42.686;23.362;2022-08-21T05:52:09;13.05;;;7.72;;
41687;SDS011;27371;42.686;23.362;2022-08-21T05:54:36;10.82;;;7.53;;
41687;SDS011;27371;42.686;23.362;2022-08-21T05:57:02;11.10;;;8.27;;
41687;SDS011;27371;42.686;23.362;2022-08-21T05:59:28;12.75;;;8.52;;
41687;SDS011;27371;42.686;23.362;2022-08-21T06:01:53;11.98;;;8.55;;
41687;SDS011;27371;42.686;23.362;2022-08-21T06:04:19;13.27;;;8.60;;
41687;SDS011;27371;42.686;23.362;2022-08-21T06:06:44;11.80;;;8.77;;
41687;SDS011;27371;42.686;23.362;2022-08-21T06:09:11;9.15;;;7.72;;
41687;SDS011;27371;42.686;23.362;2022-08-21T06:11:36;13.10;;;8.65;;
41687;SDS011;27371;42.686;23.362;2022-08-21T06:14:02;13.93;;;8.30;;
41687;SDS011;27371;42.686;23.362;2022-08-21T06:16:27;10.90;;;8.02;;
41687;SDS011;27371;42.686;23.362;2022-08-21T06:18:53;11.63;;;8.07;;
41687;SDS011;27371;42.686;23.362;2022-08-21T06:21:18;12.25;;;8.52;;
41687;SDS011;27371;42.686;23.362;2022-08-21T06:23:44;10.82;;;8.38;;
41687;SDS011;27371;42.686;23.362;2022-08-21T06:26:11;15.48;;;10.65;;
41687;SDS011;27371;42.686;23.362;2022-08-21T06:28:38;10.38;;;7.22;;
41687;SDS011;27371;42.686;23.362;2022-08-21T06:31:09;11.00;;;7.63;;
41687;SDS011;27371;42.686;23.362;2022-08-21T06:33:42;13.02;;;7.65;;
41687;SDS011;27371;42.686;23.362;2022-08-21T06:36:08;10.73;;;7.25;;
41687;SDS011;27371;42.686;23.362;2022-08-21T06:38:34;12.77;;;7.82;;
41687;SDS011;27371;42.686;23.362;2022-08-21T06:41:00;11.10;;;6.78;;
41687;SDS011;27371;42.686;23.362;2022-08-21T06:43:25;10.43;;;5.45;;
41687;SDS011;27371;42.686;23.362;2022-08-21T06:45:51;8.25;;;5.05;;
41687;SDS011;27371;42.686;23.362;2022-08-21T06:48:16;8.95;;;5.40;;
41687;SDS011;27371;42.686;23.362;2022-08-21T06:50:42;9.65;;;4.38;;
41687;SDS011;27371;42.686;23.362;2022-08-21T06:53:09;9.57;;;5.10;;
41687;SDS011;27371;42.686;23.362;2022-08-21T06:55:36;8.90;;;4.93;;
41687;SDS011;27371;42.686;23.362;2022-08-21T06:58:02;11.68;;;4.72;;
41687;SDS011;27371;42.686;23.362;2022-08-21T07:00:29;7.18;;;4.78;;
41687;SDS011;27371;42.686;23.362;2022-08-21T07:02:55;10.68;;;5.63;;
41687;SDS011;27371;42.686;23.362;2022-08-21T07:05:21;9.57;;;5.65;;
41687;SDS011;27371;42.686;23.362;2022-08-21T07:07:47;9.77;;;5.05;;
41687;SDS011;27371;42.686;23.362;2022-08-21T07:10:13;9.75;;;5.50;;
41687;SDS011;27371;42.686;23.362;2022-08-21T07:12:40;10.38;;;4.88;;
41687;SDS011;27371;42.686;23.362;2022-08-21T07:15:06;8.30;;;4.90;;
41687;SDS011;27371;42.686;23.362;2022-08-21T07:17:32;11.23;;;5.35;;
41687;SDS011;27371;42.686;23.362;2022-08-21T07:19:57;10.23;;;5.75;;
41687;SDS011;27371;42.686;23.362;2022-08-21T07:22:23;8.38;;;4.40;;
41687;SDS011;27371;42.686;23.362;2022-08-21T07:24:49;11.85;;;4.53;;
41687;SDS011;27371;42.686;23.362;2022-08-21T07:27:15;10.32;;;5.85;;
41687;SDS011;27371;42.686;23.362;2022-08-21T07:29:40;9.77;;;4.93;;
41687;SDS011;27371;42.686;23.362;2022-08-21T07:32:06;13.00;;;4.57;;
41687;SDS011;27371;42.686;23.362;2022-08-21T07:34:32;8.52;;;4.20;;
41687;SDS011;27371;42.686;23.362;2022-08-21T07:36:57;8.90;;;5.03;;
41687;SDS011;27371;42.686;23.362;2022-08-21T07:39:23;9.63;;;5.65;;
41687;SDS011;27371;42.686;23.362;2022-08-21T07:41:49;11.02;;;6.32;;
41687;SDS011;27371;42.686;23.362;2022-08-21T07:44:14;8.90;;;5.72;;
41687;SDS011;27371;42.686;23.362;2022-08-21T07:46:40;9.18;;;5.38;;
41687;SDS011;27371;42.686;23.362;2022-08-21T07:49:05;10.55;;;5.43;;
41687;SDS011;27371;42.686;23.362;2022-08-21T07:51:31;12.38;;;5.38;;
41687;SDS011;27371;42.686;23.362;2022-08-21T07:53:58;8.93;;;4.65;;
41687;SDS011;27371;42.686;23.362;2022-08-21T07:56:24;9.88;;;4.32;;
41687;SDS011;27371;42.686;23.362;2022-08-21T07:58:51;9.82;;;5.00;;
41687;SDS011;27371;42.686;23.362;2022-08-21T08:01:16;12.07;;;5.20;;
41687;SDS011;27371;42.686;23.362;2022-08-21T08:03:42;7.60;;;4.18;;
41687;SDS011;27371;42.686;23.362;2022-08-21T08:06:08;9.35;;;4.78;;
41687;SDS011;27371;42.686;23.362;2022-08-21T08:08:37;10.65;;;5.32;;
41687;SDS011;27371;42.686;23.362;2022-08-21T08:11:04;9.73;;;5.35;;
41687;SDS011;27371;42.686;23.362;2022-08-21T08:13:29;8.13;;;3.78;;
41687;SDS011;27371;42.686;23.362;2022-08-21T08:15:55;8.23;;;4.57;;
41687;SDS011;27371;42.686;23.362;2022-08-21T08:18:21;9.20;;;4.72;;
41687;SDS011;27371;42.686;23.362;2022-08-21T08:20:46;7.55;;;4.50;;
41687;SDS011;27371;42.686;23.362;2022-08-21T08:23:12;10.90;;;5.30;;
41687;SDS011;27371;42.686;23.362;2022-08-21T08:25:39;7.63;;;5.68;;
41687;SDS011;27371;42.686;23.362;2022-08-21T08:28:05;13.02;;;6.55;;
41687;SDS011;27371;42.686;23.362;2022-08-21T08:30:31;11.50;;;6.60;;
41687;SDS011;27371;42.686;23.362;2022-08-21T08:32:56;9.98;;;6.82;;
41687;SDS011;27371;42.686;23.362;2022-08-21T08:35:22;15.07;;;7.00;;
41687;SDS011;27371;42.686;23.362;2022-08-21T08:37:50;15.90;;;7.95;;
41687;SDS011;27371;42.686;23.362;2022-08-21T08:42:58;15.95;;;8.48;;
41687;SDS011;27371;42.686;23.362;2022-08-21T08:45:24;12.35;;;8.23;;
41687;SDS011;27371;42.686;23.362;2022-08-21T08:48:04;13.93;;;7.80;;
41687;SDS011;27371;42.686;23.362;2022-08-21T08:50:43;12.13;;;7.05;;
41687;SDS011;27371;42.686;23.362;2022-08-21T08:53:14;12.43;;;6.82;;
41687;SDS011;27371;42.686;23.362;2022-08-21T08:55:44;13.25;;;7.60;;
41687;SDS011;27371;42.686;23.362;2022-08-21T08:58:18;13.73;;;6.53;;
41687;SDS011;27371;42.686;23.362;2022-08-21T09:00:50;9.43;;;5.80;;
41687;SDS011;27371;42.686;23.362;2022-08-21T09:03:18;9.57;;;5.38;;
41687;SDS011;27371;42.686;23.362;2022-08-21T09:08:46;8.55;;;5.43;;
41687;SDS011;27371;42.686;23.362;2022-08-21T09:11:34;9.70;;;5.45;;
41687;SDS011;27371;42.686;23.362;2022-08-21T09:27:51;12.65;;;5.22;;
41687;SDS011;27371;42.686;23.362;2022-08-21T09:30:18;10.43;;;5.38;;
41687;SDS011;27371;42.686;23.362;2022-08-21T09:32:50;11.05;;;4.90;;
41687;SDS011;27371;42.686;23.362;2022-08-21T09:35:17;11.85;;;4.78;;
41687;SDS011;27371;42.686;23.362;2022-08-21T09:40:41;11.27;;;5.78;;
41687;SDS011;27371;42.686;23.362;2022-08-21T09:45:37;10.40;;;4.57;;
41687;SDS011;27371;42.686;23.362;2022-08-21T09:48:20;8.30;;;4.63;;
41687;SDS011;27371;42.686;23.362;2022-08-21T09:50:48;10.80;;;4.78;;
41687;SDS011;27371;42.686;23.362;2022-08-21T09:53:21;11.05;;;5.28;;
41687;SDS011;27371;42.686;23.362;2022-08-21T09:55:52;10.00;;;4.30;;
41687;SDS011;27371;42.686;23.362;2022-08-21T09:58:39;11.68;;;4.18;;
41687;SDS011;27371;42.686;23.362;2022-08-21T10:01:11;9.75;;;4.22;;
41687;SDS011;27371;42.686;23.362;2022-08-21T10:03:42;12.52;;;5.32;;
41687;SDS011;27371;42.686;23.362;2022-08-21T10:06:08;8.18;;;4.45;;
41687;SDS011;27371;42.686;23.362;2022-08-21T10:08:39;12.15;;;4.70;;
41687;SDS011;27371;42.686;23.362;2022-08-21T10:11:07;7.70;;;4.93;;
41687;SDS011;27371;42.686;23.362;2022-08-21T10:13:39;9.18;;;5.10;;
41687;SDS011;27371;42.686;23.362;2022-08-21T10:16:26;8.90;;;5.00;;
41687;SDS011;27371;42.686;23.362;2022-08-21T10:29:09;12.00;;;4.80;;
41687;SDS011;27371;42.686;23.362;2022-08-21T10:37:45;13.40;;;7.72;;
41687;SDS011;27371;42.686;23.362;2022-08-21T10:40:27;10.02;;;5.80;;
41687;SDS011;27371;42.686;23.362;2022-08-21T10:48:18;9.10;;;5.07;;
41687;SDS011;27371;42.686;23.362;2022-08-21T10:50:54;7.60;;;4.20;;
41687;SDS011;27371;42.686;23.362;2022-08-21T10:56:26;8.20;;;4.38;;
41687;SDS011;27371;42.686;23.362;2022-08-21T10:59:02;7.15;;;4.28;;
41687;SDS011;27371;42.686;23.362;2022-08-21T11:04:25;8.98;;;4.88;;
41687;SDS011;27371;42.686;23.362;2022-08-21T11:07:00;13.32;;;4.75;;
41687;SDS011;27371;42.686;23.362;2022-08-21T11:09:42;10.68;;;4.53;;
41687;SDS011;27371;42.686;23.362;2022-08-21T11:12:28;9.95;;;3.97;;
41687;SDS011;27371;42.686;23.362;2022-08-21T11:15:07;9.63;;;4.35;;
41687;SDS011;27371;42.686;23.362;2022-08-21T11:20:51;9.88;;;4.45;;
41687;SDS011;27371;42.686;23.362;2022-08-21T11:26:58;9.82;;;4.15;;
41687;SDS011;27371;42.686;23.362;2022-08-21T11:29:44;8.68;;;4.07;;
41687;SDS011;27371;42.686;23.362;2022-08-21T11:46:03;7.75;;;4.10;;
41687;SDS011;27371;42.686;23.362;2022-08-21T11:52:35;9.93;;;4.13;;
41687;SDS011;27371;42.686;23.362;2022-08-21T11:55:02;8.60;;;4.05;;
41687;SDS011;27371;42.686;23.362;2022-08-21T11:58:14;10.02;;;4.15;;
41687;SDS011;27371;42.686;23.362;2022-08-21T12:00:39;8.90;;;4.30;;
41687;SDS011;27371;42.686;23.362;2022-08-21T12:03:42;9.70;;;4.55;;
41687;SDS011;27371;42.686;23.362;2022-08-21T12:06:07;8.82;;;4.25;;
41687;SDS011;27371;42.686;23.362;2022-08-21T12:08:36;5.45;;;4.10;;
41687;SDS011;27371;42.686;23.362;2022-08-21T12:11:10;7.68;;;4.38;;
41687;SDS011;27371;42.686;23.362;2022-08-21T12:13:59;11.25;;;4.72;;
41687;SDS011;27371;42.686;23.362;2022-08-21T12:16:40;9.77;;;4.82;;
41687;SDS011;27371;42.686;23.362;2022-08-21T12:19:09;8.68;;;4.88;;
41687;SDS011;27371;42.686;23.362;2022-08-21T12:24:19;8.00;;;4.90;;
41687;SDS011;27371;42.686;23.362;2022-08-21T12:27:01;7.20;;;4.82;;
41687;SDS011;27371;42.686;23.362;2022-08-21T12:30:00;5.97;;;4.72;;
41687;SDS011;27371;42.686;23.362;2022-08-21T12:32:44;8.05;;;4.43;;
41687;SDS011;27371;42.686;23.362;2022-08-21T12:37:38;7.93;;;4.20;;
41687;SDS011;27371;42.686;23.362;2022-08-21T12:40:22;11.50;;;4.03;;
41687;SDS011;27371;42.686;23.362;2022-08-21T12:42:53;8.60;;;4.22;;
41687;SDS011;27371;42.686;23.362;2022-08-21T12:45:26;6.78;;;4.15;;
41687;SDS011;27371;42.686;23.362;2022-08-21T12:50:58;8.57;;;4.88;;
41687;SDS011;27371;42.686;23.362;2022-08-21T12:53:47;7.13;;;3.95;;
41687;SDS011;27371;42.686;23.362;2022-08-21T12:56:21;12.15;;;6.07;;
41687;SDS011;27371;42.686;23.362;2022-08-21T12:58:55;11.10;;;5.07;;
41687;SDS011;27371;42.686;23.362;2022-08-21T13:01:27;10.02;;;5.18;;
41687;SDS011;27371;42.686;23.362;2022-08-21T13:03:57;8.40;;;4.40;;
41687;SDS011;27371;42.686;23.362;2022-08-21T13:06:26;15.25;;;10.25;;
41687;SDS011;27371;42.686;23.362;2022-08-21T13:08:57;9.75;;;5.85;;
41687;SDS011;27371;42.686;23.362;2022-08-21T13:11:28;6.00;;;4.03;;
41687;SDS011;27371;42.686;23.362;2022-08-21T13:13:54;10.70;;;7.85;;
41687;SDS011;27371;42.686;23.362;2022-08-21T13:16:22;11.48;;;6.55;;
41687;SDS011;27371;42.686;23.362;2022-08-21T13:18:56;11.30;;;4.10;;
41687;SDS011;27371;42.686;23.362;2022-08-21T13:21:31;7.20;;;3.70;;
41687;SDS011;27371;42.686;23.362;2022-08-21T13:24:23;7.30;;;3.90;;
41687;SDS011;27371;42.686;23.362;2022-08-21T13:26:54;11.77;;;3.85;;
41687;SDS011;27371;42.686;23.362;2022-08-21T13:29:22;10.77;;;3.88;;
41687;SDS011;27371;42.686;23.362;2022-08-21T13:31:53;5.15;;;3.35;;
41687;SDS011;27371;42.686;23.362;2022-08-21T13:34:28;11.93;;;3.33;;
41687;SDS011;27371;42.686;23.362;2022-08-21T13:37:00;7.28;;;3.65;;
41687;SDS011;27371;42.686;23.362;2022-08-21T13:39:28;5.60;;;3.13;;
41687;SDS011;27371;42.686;23.362;2022-08-21T13:41:55;6.97;;;3.47;;
41687;SDS011;27371;42.686;23.362;2022-08-21T13:44:23;5.97;;;3.85;;
41687;SDS011;27371;42.686;23.362;2022-08-21T13:46:57;7.35;;;4.78;;
41687;SDS011;27371;42.686;23.362;2022-08-21T13:49:33;28.60;;;22.75;;
41687;SDS011;27371;42.686;23.362;2022-08-21T13:52:02;10.20;;;7.28;;
41687;SDS011;27371;42.686;23.362;2022-08-21T13:54:38;7.35;;;4.00;;
41687;SDS011;27371;42.686;23.362;2022-08-21T13:57:18;6.90;;;4.45;;
41687;SDS011;27371;42.686;23.362;2022-08-21T13:59:49;6.80;;;3.80;;
41687;SDS011;27371;42.686;23.362;2022-08-21T14:02:19;8.77;;;3.75;;
41687;SDS011;27371;42.686;23.362;2022-08-21T14:07:35;7.10;;;3.20;;
41687;SDS011;27371;42.686;23.362;2022-08-21T14:10:12;9.63;;;3.72;;
41687;SDS011;27371;42.686;23.362;2022-08-21T14:12:41;8.32;;;3.50;;
41687;SDS011;27371;42.686;23.362;2022-08-21T14:15:18;9.93;;;3.83;;
41687;SDS011;27371;42.686;23.362;2022-08-21T14:17:48;8.23;;;3.80;;
41687;SDS011;27371;42.686;23.362;2022-08-21T14:20:30;9.38;;;3.78;;
41687;SDS011;27371;42.686;23.362;2022-08-21T14:22:58;9.13;;;4.10;;
41687;SDS011;27371;42.686;23.362;2022-08-21T14:27:56;7.00;;;3.90;;
41687;SDS011;27371;42.686;23.362;2022-08-21T14:30:27;8.00;;;4.25;;
41687;SDS011;27371;42.686;23.362;2022-08-21T14:35:22;8.05;;;4.10;;
41687;SDS011;27371;42.686;23.362;2022-08-21T14:37:48;8.40;;;3.90;;
41687;SDS011;27371;42.686;23.362;2022-08-21T14:40:19;9.20;;;4.72;;
41687;SDS011;27371;42.686;23.362;2022-08-21T14:42:46;10.88;;;4.95;;
41687;SDS011;27371;42.686;23.362;2022-08-21T14:45:19;5.60;;;4.13;;
41687;SDS011;27371;42.686;23.362;2022-08-21T14:47:50;8.43;;;4.57;;
41687;SDS011;27371;42.686;23.362;2022-08-21T14:50:16;9.80;;;4.53;;
41687;SDS011;27371;42.686;23.362;2022-08-21T14:52:42;7.60;;;4.43;;
41687;SDS011;27371;42.686;23.362;2022-08-21T14:55:11;8.07;;;3.80;;
41687;SDS011;27371;42.686;23.362;2022-08-21T14:57:45;11.45;;;3.85;;
41687;SDS011;27371;42.686;23.362;2022-08-21T15:00:13;7.35;;;4.15;;
41687;SDS011;27371;42.686;23.362;2022-08-21T15:02:41;7.55;;;4.32;;
41687;SDS011;27371;42.686;23.362;2022-08-21T15:05:08;7.88;;;3.70;;
41687;SDS011;27371;42.686;23.362;2022-08-21T15:07:33;5.65;;;3.80;;
41687;SDS011;27371;42.686;23.362;2022-08-21T15:09:59;7.22;;;4.07;;
41687;SDS011;27371;42.686;23.362;2022-08-21T15:12:25;10.18;;;5.78;;
41687;SDS011;27371;42.686;23.362;2022-08-21T15:14:51;6.50;;;4.30;;
41687;SDS011;27371;42.686;23.362;2022-08-21T15:17:18;7.60;;;3.97;;
41687;SDS011;27371;42.686;23.362;2022-08-21T15:19:44;9.95;;;5.25;;
41687;SDS011;27371;42.686;23.362;2022-08-21T15:22:09;8.82;;;4.55;;
41687;SDS011;27371;42.686;23.362;2022-08-21T15:24:35;9.95;;;4.88;;
41687;SDS011;27371;42.686;23.362;2022-08-21T15:27:01;11.00;;;4.60;;
41687;SDS011;27371;42.686;23.362;2022-08-21T15:29:28;8.25;;;4.70;;
41687;SDS011;27371;42.686;23.362;2022-08-21T15:31:59;8.80;;;5.25;;
41687;SDS011;27371;42.686;23.362;2022-08-21T15:37:05;9.05;;;4.63;;
41687;SDS011;27371;42.686;23.362;2022-08-21T15:39:32;7.70;;;4.50;;
41687;SDS011;27371;42.686;23.362;2022-08-21T15:41:59;8.35;;;5.00;;
41687;SDS011;27371;42.686;23.362;2022-08-21T15:44:25;8.70;;;5.43;;
41687;SDS011;27371;42.686;23.362;2022-08-21T15:46:53;10.55;;;4.85;;
41687;SDS011;27371;42.686;23.362;2022-08-21T15:49:18;10.82;;;5.18;;
41687;SDS011;27371;42.686;23.362;2022-08-21T15:51:44;6.82;;;4.47;;
41687;SDS011;27371;42.686;23.362;2022-08-21T15:54:09;8.40;;;4.75;;
41687;SDS011;27371;42.686;23.362;2022-08-21T15:56:36;9.23;;;4.55;;
41687;SDS011;27371;42.686;23.362;2022-08-21T15:59:05;7.63;;;4.72;;
41687;SDS011;27371;42.686;23.362;2022-08-21T16:01:34;7.05;;;4.22;;
41687;SDS011;27371;42.686;23.362;2022-08-21T16:04:01;7.63;;;4.53;;
41687;SDS011;27371;42.686;23.362;2022-08-21T16:06:28;7.00;;;4.75;;
41687;SDS011;27371;42.686;23.362;2022-08-21T16:08:53;8.15;;;4.97;;
41687;SDS011;27371;42.686;23.362;2022-08-21T16:11:19;7.97;;;4.40;;
41687;SDS011;27371;42.686;23.362;2022-08-21T16:13:45;9.77;;;5.20;;